sensor_id;sensor_type;location;lat;lon;timestamp;P1;durP1;ratioP1;P2;durP2;ratioP2
21095;SDS011;10706;49.036;12.112;2022-12-18T00:03:52;65.60;;;20.63;;
21095;SDS011;10706;49.036;12.112;2022-12-18T00:06:19;52.00;;;16.63;;
21095;SDS011;10706;49.036;12.112;2022-12-18T00:08:46;71.47;;;21.30;;
21095;SDS011;10706;49.036;12.112;2022-12-18T00:11:13;73.03;;;24.60;;
21095;SDS011;10706;49.036;12.112;2022-12-18T00:13:42;66.33;;;21.20;;
21095;SDS011;10706;49.036;12.112;2022-12-18T00:16:09;84.20;;;27.63;;
21095;SDS011;10706;49.036;12.112;2022-12-18T00:18:40;57.90;;;19.33;;
21095;SDS011;10706;49.036;12.112;2022-12-18T00:21:08;65.43;;;20.73;;
21095;SDS011;10706;49.036;12.112;2022-12-18T00:23:36;52.53;;;18.17;;
21095;SDS011;10706;49.036;12.112;2022-12-18T00:26:03;47.33;;;16.70;;
21095;SDS011;10706;49.036;12.112;2022-12-18T00:28:32;77.30;;;24.40;;
21095;SDS011;10706;49.036;12.112;2022-12-18T00:31:02;49.07;;;17.90;;
21095;SDS011;10706;49.036;12.112;2022-12-18T00:33:30;38.77;;;15.57;;
21095;SDS011;10706;49.036;12.112;2022-12-18T00:36:03;59.40;;;17.17;;
21095;SDS011;10706;49.036;12.112;2022-12-18T00:38:32;56.60;;;19.20;;
21095;SDS011;10706;49.036;12.112;2022-12-18T00:40:59;51.37;;;18.07;;
21095;SDS011;10706;49.036;12.112;2022-12-18T00:43:24;44.43;;;15.47;;
21095;SDS011;10706;49.036;12.112;2022-12-18T00:45:50;56.20;;;19.43;;
21095;SDS011;10706;49.036;12.112;2022-12-18T00:48:16;58.47;;;18.83;;
21095;SDS011;10706;49.036;12.112;2022-12-18T00:50:42;59.90;;;19.93;;
21095;SDS011;10706;49.036;12.112;2022-12-18T00:53:11;60.73;;;19.77;;
21095;SDS011;10706;49.036;12.112;2022-12-18T00:55:37;56.87;;;19.13;;
21095;SDS011;10706;49.036;12.112;2022-12-18T00:58:05;47.10;;;16.67;;
21095;SDS011;10706;49.036;12.112;2022-12-18T01:00:30;54.70;;;16.47;;
21095;SDS011;10706;49.036;12.112;2022-12-18T01:02:56;64.67;;;21.93;;
21095;SDS011;10706;49.036;12.112;2022-12-18T01:05:22;53.50;;;17.10;;
21095;SDS011;10706;49.036;12.112;2022-12-18T01:07:48;49.37;;;18.40;;
21095;SDS011;10706;49.036;12.112;2022-12-18T01:10:13;53.73;;;17.77;;
21095;SDS011;10706;49.036;12.112;2022-12-18T01:12:39;50.00;;;16.63;;
21095;SDS011;10706;49.036;12.112;2022-12-18T01:15:06;57.20;;;19.57;;
21095;SDS011;10706;49.036;12.112;2022-12-18T01:17:33;40.70;;;11.03;;
21095;SDS011;10706;49.036;12.112;2022-12-18T01:19:59;55.00;;;16.43;;
21095;SDS011;10706;49.036;12.112;2022-12-18T01:22:24;56.40;;;16.73;;
21095;SDS011;10706;49.036;12.112;2022-12-18T01:24:50;51.43;;;16.33;;
21095;SDS011;10706;49.036;12.112;2022-12-18T01:27:16;46.33;;;16.70;;
21095;SDS011;10706;49.036;12.112;2022-12-18T01:29:41;53.07;;;15.63;;
21095;SDS011;10706;49.036;12.112;2022-12-18T01:32:07;41.33;;;14.63;;
21095;SDS011;10706;49.036;12.112;2022-12-18T01:34:35;51.23;;;16.10;;
21095;SDS011;10706;49.036;12.112;2022-12-18T01:37:02;44.77;;;16.13;;
21095;SDS011;10706;49.036;12.112;2022-12-18T01:39:29;49.20;;;16.93;;
21095;SDS011;10706;49.036;12.112;2022-12-18T01:41:56;34.00;;;12.70;;
21095;SDS011;10706;49.036;12.112;2022-12-18T01:50:23;42.60;;;14.87;;
21095;SDS011;10706;49.036;12.112;2022-12-18T01:53:21;50.63;;;17.40;;
21095;SDS011;10706;49.036;12.112;2022-12-18T01:55:49;46.00;;;16.33;;
21095;SDS011;10706;49.036;12.112;2022-12-18T01:58:24;52.47;;;16.53;;
21095;SDS011;10706;49.036;12.112;2022-12-18T02:01:09;47.70;;;18.37;;
21095;SDS011;10706;49.036;12.112;2022-12-18T02:03:34;47.13;;;16.63;;
21095;SDS011;10706;49.036;12.112;2022-12-18T02:08:54;57.97;;;18.13;;
21095;SDS011;10706;49.036;12.112;2022-12-18T02:11:39;53.37;;;16.70;;
21095;SDS011;10706;49.036;12.112;2022-12-18T02:17:36;44.33;;;14.93;;
21095;SDS011;10706;49.036;12.112;2022-12-18T02:20:31;50.37;;;14.07;;
21095;SDS011;10706;49.036;12.112;2022-12-18T02:29:00;45.77;;;15.03;;
21095;SDS011;10706;49.036;12.112;2022-12-18T02:31:43;42.63;;;13.90;;
21095;SDS011;10706;49.036;12.112;2022-12-18T02:34:17;49.27;;;14.57;;
21095;SDS011;10706;49.036;12.112;2022-12-18T02:36:47;51.47;;;17.00;;
21095;SDS011;10706;49.036;12.112;2022-12-18T02:39:14;58.90;;;17.23;;
21095;SDS011;10706;49.036;12.112;2022-12-18T02:41:42;50.53;;;18.13;;
21095;SDS011;10706;49.036;12.112;2022-12-18T02:44:10;48.23;;;17.03;;
21095;SDS011;10706;49.036;12.112;2022-12-18T02:46:45;59.63;;;18.60;;
21095;SDS011;10706;49.036;12.112;2022-12-18T02:49:34;50.37;;;17.63;;
21095;SDS011;10706;49.036;12.112;2022-12-18T02:52:10;46.83;;;17.67;;
21095;SDS011;10706;49.036;12.112;2022-12-18T03:00:04;51.90;;;16.37;;
21095;SDS011;10706;49.036;12.112;2022-12-18T03:05:16;48.63;;;16.17;;
21095;SDS011;10706;49.036;12.112;2022-12-18T03:08:08;49.23;;;15.67;;
21095;SDS011;10706;49.036;12.112;2022-12-18T03:10:43;42.77;;;14.77;;
21095;SDS011;10706;49.036;12.112;2022-12-18T03:13:23;45.47;;;15.57;;
21095;SDS011;10706;49.036;12.112;2022-12-18T03:16:02;44.37;;;14.03;;
21095;SDS011;10706;49.036;12.112;2022-12-18T03:18:34;42.83;;;15.20;;
21095;SDS011;10706;49.036;12.112;2022-12-18T03:21:12;41.17;;;13.70;;
21095;SDS011;10706;49.036;12.112;2022-12-18T03:23:44;42.27;;;13.07;;
21095;SDS011;10706;49.036;12.112;2022-12-18T03:26:14;33.00;;;12.30;;
21095;SDS011;10706;49.036;12.112;2022-12-18T03:28:46;42.83;;;14.77;;
21095;SDS011;10706;49.036;12.112;2022-12-18T03:31:18;39.67;;;13.70;;
21095;SDS011;10706;49.036;12.112;2022-12-18T03:33:52;32.93;;;12.90;;
21095;SDS011;10706;49.036;12.112;2022-12-18T03:36:19;37.47;;;12.97;;
21095;SDS011;10706;49.036;12.112;2022-12-18T03:38:45;42.30;;;13.30;;
21095;SDS011;10706;49.036;12.112;2022-12-18T03:41:16;42.80;;;13.97;;
21095;SDS011;10706;49.036;12.112;2022-12-18T03:43:52;34.57;;;12.13;;
21095;SDS011;10706;49.036;12.112;2022-12-18T03:49:01;38.80;;;13.80;;
21095;SDS011;10706;49.036;12.112;2022-12-18T03:51:48;42.30;;;14.30;;
21095;SDS011;10706;49.036;12.112;2022-12-18T03:54:53;36.07;;;12.00;;
21095;SDS011;10706;49.036;12.112;2022-12-18T03:57:21;37.43;;;12.20;;
21095;SDS011;10706;49.036;12.112;2022-12-18T03:59:56;27.97;;;9.30;;
21095;SDS011;10706;49.036;12.112;2022-12-18T04:02:53;35.17;;;12.30;;
21095;SDS011;10706;49.036;12.112;2022-12-18T04:05:22;34.33;;;11.87;;
21095;SDS011;10706;49.036;12.112;2022-12-18T04:07:50;34.10;;;12.07;;
21095;SDS011;10706;49.036;12.112;2022-12-18T04:10:19;27.53;;;10.40;;
21095;SDS011;10706;49.036;12.112;2022-12-18T04:12:44;30.43;;;11.53;;
21095;SDS011;10706;49.036;12.112;2022-12-18T04:15:10;35.40;;;12.60;;
21095;SDS011;10706;49.036;12.112;2022-12-18T04:17:38;24.27;;;10.13;;
21095;SDS011;10706;49.036;12.112;2022-12-18T04:20:11;40.03;;;12.10;;
21095;SDS011;10706;49.036;12.112;2022-12-18T04:22:37;31.83;;;11.57;;
21095;SDS011;10706;49.036;12.112;2022-12-18T04:25:03;32.43;;;13.20;;
21095;SDS011;10706;49.036;12.112;2022-12-18T04:27:29;27.70;;;11.37;;
21095;SDS011;10706;49.036;12.112;2022-12-18T04:29:55;35.07;;;11.73;;
21095;SDS011;10706;49.036;12.112;2022-12-18T04:32:21;43.33;;;14.10;;
21095;SDS011;10706;49.036;12.112;2022-12-18T04:34:47;46.63;;;13.73;;
21095;SDS011;10706;49.036;12.112;2022-12-18T04:37:12;41.40;;;14.60;;
21095;SDS011;10706;49.036;12.112;2022-12-18T04:39:38;25.50;;;10.03;;
21095;SDS011;10706;49.036;12.112;2022-12-18T04:42:04;31.43;;;11.63;;
21095;SDS011;10706;49.036;12.112;2022-12-18T04:44:30;41.13;;;12.90;;
21095;SDS011;10706;49.036;12.112;2022-12-18T04:46:56;44.23;;;14.53;;
21095;SDS011;10706;49.036;12.112;2022-12-18T04:49:21;40.13;;;14.37;;
21095;SDS011;10706;49.036;12.112;2022-12-18T04:51:47;28.27;;;11.13;;
21095;SDS011;10706;49.036;12.112;2022-12-18T04:54:13;42.10;;;13.37;;
21095;SDS011;10706;49.036;12.112;2022-12-18T04:56:39;34.47;;;12.53;;
21095;SDS011;10706;49.036;12.112;2022-12-18T04:59:05;32.63;;;12.77;;
21095;SDS011;10706;49.036;12.112;2022-12-18T05:01:30;37.30;;;12.47;;
21095;SDS011;10706;49.036;12.112;2022-12-18T05:03:56;35.20;;;12.70;;
21095;SDS011;10706;49.036;12.112;2022-12-18T05:06:22;31.97;;;11.17;;
21095;SDS011;10706;49.036;12.112;2022-12-18T05:08:47;35.07;;;12.23;;
21095;SDS011;10706;49.036;12.112;2022-12-18T05:11:14;37.70;;;13.07;;
21095;SDS011;10706;49.036;12.112;2022-12-18T05:13:40;43.30;;;13.40;;
21095;SDS011;10706;49.036;12.112;2022-12-18T05:16:07;36.60;;;11.83;;
21095;SDS011;10706;49.036;12.112;2022-12-18T05:18:34;40.37;;;14.10;;
21095;SDS011;10706;49.036;12.112;2022-12-18T05:21:00;28.80;;;8.83;;
21095;SDS011;10706;49.036;12.112;2022-12-18T05:23:26;38.23;;;12.10;;
21095;SDS011;10706;49.036;12.112;2022-12-18T05:25:53;37.37;;;13.60;;
21095;SDS011;10706;49.036;12.112;2022-12-18T05:28:25;39.27;;;12.07;;
21095;SDS011;10706;49.036;12.112;2022-12-18T05:30:54;35.30;;;12.97;;
21095;SDS011;10706;49.036;12.112;2022-12-18T05:33:24;27.00;;;9.20;;
21095;SDS011;10706;49.036;12.112;2022-12-18T05:35:52;45.10;;;14.63;;
21095;SDS011;10706;49.036;12.112;2022-12-18T05:38:24;43.03;;;13.63;;
21095;SDS011;10706;49.036;12.112;2022-12-18T05:40:51;35.23;;;11.43;;
21095;SDS011;10706;49.036;12.112;2022-12-18T05:43:18;42.47;;;13.23;;
21095;SDS011;10706;49.036;12.112;2022-12-18T05:45:46;34.17;;;13.10;;
21095;SDS011;10706;49.036;12.112;2022-12-18T05:48:12;38.57;;;14.53;;
21095;SDS011;10706;49.036;12.112;2022-12-18T05:50:40;42.17;;;14.73;;
21095;SDS011;10706;49.036;12.112;2022-12-18T05:53:10;39.93;;;14.23;;
21095;SDS011;10706;49.036;12.112;2022-12-18T05:55:38;43.73;;;13.63;;
21095;SDS011;10706;49.036;12.112;2022-12-18T05:58:06;39.43;;;13.00;;
21095;SDS011;10706;49.036;12.112;2022-12-18T06:00:34;39.30;;;13.67;;
21095;SDS011;10706;49.036;12.112;2022-12-18T06:03:09;37.20;;;13.37;;
21095;SDS011;10706;49.036;12.112;2022-12-18T06:05:38;39.17;;;12.17;;
21095;SDS011;10706;49.036;12.112;2022-12-18T06:08:07;42.27;;;13.40;;
21095;SDS011;10706;49.036;12.112;2022-12-18T06:10:33;30.03;;;10.03;;
21095;SDS011;10706;49.036;12.112;2022-12-18T06:12:59;32.80;;;10.70;;
21095;SDS011;10706;49.036;12.112;2022-12-18T06:15:25;43.87;;;13.37;;
21095;SDS011;10706;49.036;12.112;2022-12-18T06:17:51;37.27;;;12.53;;
21095;SDS011;10706;49.036;12.112;2022-12-18T06:20:17;40.87;;;13.80;;
21095;SDS011;10706;49.036;12.112;2022-12-18T06:22:43;36.13;;;11.97;;
21095;SDS011;10706;49.036;12.112;2022-12-18T06:25:09;34.40;;;11.83;;
21095;SDS011;10706;49.036;12.112;2022-12-18T06:27:34;33.63;;;12.20;;
21095;SDS011;10706;49.036;12.112;2022-12-18T06:30:00;45.97;;;13.97;;
21095;SDS011;10706;49.036;12.112;2022-12-18T06:32:26;25.57;;;10.17;;
21095;SDS011;10706;49.036;12.112;2022-12-18T06:34:52;46.07;;;13.37;;
21095;SDS011;10706;49.036;12.112;2022-12-18T06:37:18;41.63;;;14.17;;
21095;SDS011;10706;49.036;12.112;2022-12-18T06:39:44;43.50;;;14.77;;
21095;SDS011;10706;49.036;12.112;2022-12-18T06:42:10;42.87;;;12.93;;
21095;SDS011;10706;49.036;12.112;2022-12-18T06:44:36;38.87;;;12.53;;
21095;SDS011;10706;49.036;12.112;2022-12-18T06:47:02;38.83;;;14.00;;
21095;SDS011;10706;49.036;12.112;2022-12-18T06:49:28;43.60;;;14.30;;
21095;SDS011;10706;49.036;12.112;2022-12-18T06:51:54;40.27;;;14.20;;
21095;SDS011;10706;49.036;12.112;2022-12-18T06:54:20;38.57;;;12.13;;
21095;SDS011;10706;49.036;12.112;2022-12-18T06:56:46;43.67;;;13.80;;
21095;SDS011;10706;49.036;12.112;2022-12-18T06:59:12;19.50;;;8.23;;
21095;SDS011;10706;49.036;12.112;2022-12-18T07:01:38;50.17;;;15.13;;
21095;SDS011;10706;49.036;12.112;2022-12-18T07:04:04;40.20;;;14.77;;
21095;SDS011;10706;49.036;12.112;2022-12-18T07:06:29;46.23;;;14.50;;
21095;SDS011;10706;49.036;12.112;2022-12-18T07:08:55;45.80;;;13.67;;
21095;SDS011;10706;49.036;12.112;2022-12-18T07:11:21;36.57;;;13.50;;
21095;SDS011;10706;49.036;12.112;2022-12-18T07:13:47;41.77;;;14.13;;
21095;SDS011;10706;49.036;12.112;2022-12-18T07:16:17;40.30;;;13.60;;
21095;SDS011;10706;49.036;12.112;2022-12-18T07:18:45;44.90;;;13.97;;
21095;SDS011;10706;49.036;12.112;2022-12-18T07:21:12;44.67;;;16.93;;
21095;SDS011;10706;49.036;12.112;2022-12-18T07:23:40;37.53;;;13.07;;
21095;SDS011;10706;49.036;12.112;2022-12-18T07:26:09;43.97;;;15.77;;
21095;SDS011;10706;49.036;12.112;2022-12-18T07:28:38;41.80;;;14.63;;
21095;SDS011;10706;49.036;12.112;2022-12-18T07:31:06;37.77;;;13.87;;
21095;SDS011;10706;49.036;12.112;2022-12-18T07:33:35;36.77;;;13.90;;
21095;SDS011;10706;49.036;12.112;2022-12-18T07:36:02;47.73;;;14.80;;
21095;SDS011;10706;49.036;12.112;2022-12-18T07:38:31;41.00;;;13.73;;
21095;SDS011;10706;49.036;12.112;2022-12-18T07:41:02;47.90;;;14.47;;
21095;SDS011;10706;49.036;12.112;2022-12-18T07:43:33;55.27;;;15.13;;
21095;SDS011;10706;49.036;12.112;2022-12-18T07:46:00;34.80;;;12.13;;
21095;SDS011;10706;49.036;12.112;2022-12-18T07:48:25;25.57;;;9.87;;
21095;SDS011;10706;49.036;12.112;2022-12-18T07:50:52;37.77;;;13.43;;
21095;SDS011;10706;49.036;12.112;2022-12-18T07:53:18;43.00;;;15.20;;
21095;SDS011;10706;49.036;12.112;2022-12-18T07:55:44;48.97;;;15.97;;
21095;SDS011;10706;49.036;12.112;2022-12-18T07:58:09;39.07;;;13.67;;
21095;SDS011;10706;49.036;12.112;2022-12-18T08:00:35;46.13;;;14.50;;
21095;SDS011;10706;49.036;12.112;2022-12-18T08:03:01;47.20;;;14.70;;
21095;SDS011;10706;49.036;12.112;2022-12-18T08:05:27;48.57;;;14.33;;
21095;SDS011;10706;49.036;12.112;2022-12-18T08:07:53;57.43;;;17.03;;
21095;SDS011;10706;49.036;12.112;2022-12-18T08:10:19;41.70;;;15.40;;
21095;SDS011;10706;49.036;12.112;2022-12-18T08:12:48;43.50;;;14.07;;
21095;SDS011;10706;49.036;12.112;2022-12-18T08:15:15;51.40;;;15.50;;
21095;SDS011;10706;49.036;12.112;2022-12-18T08:17:41;48.40;;;13.90;;
21095;SDS011;10706;49.036;12.112;2022-12-18T08:20:07;51.77;;;15.23;;
21095;SDS011;10706;49.036;12.112;2022-12-18T08:22:34;42.30;;;14.50;;
21095;SDS011;10706;49.036;12.112;2022-12-18T08:25:00;34.27;;;13.27;;
21095;SDS011;10706;49.036;12.112;2022-12-18T08:27:27;47.73;;;15.63;;
21095;SDS011;10706;49.036;12.112;2022-12-18T08:29:53;39.33;;;13.60;;
21095;SDS011;10706;49.036;12.112;2022-12-18T08:32:19;46.03;;;14.97;;
21095;SDS011;10706;49.036;12.112;2022-12-18T08:34:44;31.27;;;11.33;;
21095;SDS011;10706;49.036;12.112;2022-12-18T08:37:10;37.53;;;14.27;;
21095;SDS011;10706;49.036;12.112;2022-12-18T08:39:36;44.27;;;14.80;;
21095;SDS011;10706;49.036;12.112;2022-12-18T08:42:02;38.90;;;12.50;;
21095;SDS011;10706;49.036;12.112;2022-12-18T08:44:46;43.73;;;14.57;;
21095;SDS011;10706;49.036;12.112;2022-12-18T08:47:12;35.87;;;12.33;;
21095;SDS011;10706;49.036;12.112;2022-12-18T08:49:38;38.13;;;13.30;;
21095;SDS011;10706;49.036;12.112;2022-12-18T08:52:04;49.67;;;14.83;;
21095;SDS011;10706;49.036;12.112;2022-12-18T08:54:30;41.17;;;11.67;;
21095;SDS011;10706;49.036;12.112;2022-12-18T08:56:55;43.03;;;13.80;;
21095;SDS011;10706;49.036;12.112;2022-12-18T08:59:21;41.37;;;12.83;;
21095;SDS011;10706;49.036;12.112;2022-12-18T09:01:48;37.57;;;12.60;;
21095;SDS011;10706;49.036;12.112;2022-12-18T09:04:14;37.90;;;13.23;;
21095;SDS011;10706;49.036;12.112;2022-12-18T09:06:40;28.80;;;10.63;;
21095;SDS011;10706;49.036;12.112;2022-12-18T09:09:06;42.43;;;15.80;;
21095;SDS011;10706;49.036;12.112;2022-12-18T09:11:32;44.03;;;14.50;;
21095;SDS011;10706;49.036;12.112;2022-12-18T09:13:59;41.70;;;14.43;;
21095;SDS011;10706;49.036;12.112;2022-12-18T09:16:26;21.20;;;9.27;;
21095;SDS011;10706;49.036;12.112;2022-12-18T09:18:54;44.20;;;13.27;;
21095;SDS011;10706;49.036;12.112;2022-12-18T09:21:24;35.83;;;13.33;;
21095;SDS011;10706;49.036;12.112;2022-12-18T09:23:53;36.47;;;12.80;;
21095;SDS011;10706;49.036;12.112;2022-12-18T09:26:21;35.60;;;12.43;;
21095;SDS011;10706;49.036;12.112;2022-12-18T09:28:48;43.67;;;14.07;;
21095;SDS011;10706;49.036;12.112;2022-12-18T09:31:15;46.47;;;14.00;;
21095;SDS011;10706;49.036;12.112;2022-12-18T09:33:43;47.57;;;15.17;;
21095;SDS011;10706;49.036;12.112;2022-12-18T09:36:11;46.50;;;15.57;;
21095;SDS011;10706;49.036;12.112;2022-12-18T09:38:39;42.83;;;14.53;;
21095;SDS011;10706;49.036;12.112;2022-12-18T09:41:13;50.47;;;14.57;;
21095;SDS011;10706;49.036;12.112;2022-12-18T09:44:13;45.80;;;12.87;;
21095;SDS011;10706;49.036;12.112;2022-12-18T09:46:49;35.20;;;13.40;;
21095;SDS011;10706;49.036;12.112;2022-12-18T09:49:52;45.60;;;13.40;;
21095;SDS011;10706;49.036;12.112;2022-12-18T09:54:57;47.33;;;15.90;;
21095;SDS011;10706;49.036;12.112;2022-12-18T09:57:51;44.63;;;15.33;;
21095;SDS011;10706;49.036;12.112;2022-12-18T10:00:22;55.03;;;16.73;;
21095;SDS011;10706;49.036;12.112;2022-12-18T10:02:50;44.23;;;17.57;;
21095;SDS011;10706;49.036;12.112;2022-12-18T10:05:20;52.90;;;16.17;;
21095;SDS011;10706;49.036;12.112;2022-12-18T10:19:56;43.00;;;13.67;;
21095;SDS011;10706;49.036;12.112;2022-12-18T10:25:28;33.90;;;10.20;;
21095;SDS011;10706;49.036;12.112;2022-12-18T10:28:20;43.13;;;12.77;;
21095;SDS011;10706;49.036;12.112;2022-12-18T10:30:48;42.47;;;14.40;;
21095;SDS011;10706;49.036;12.112;2022-12-18T10:33:18;42.20;;;14.90;;
21095;SDS011;10706;49.036;12.112;2022-12-18T10:35:48;41.20;;;13.53;;
21095;SDS011;10706;49.036;12.112;2022-12-18T10:40:49;42.47;;;14.60;;
21095;SDS011;10706;49.036;12.112;2022-12-18T10:43:23;40.60;;;13.97;;
21095;SDS011;10706;49.036;12.112;2022-12-18T10:48:31;45.87;;;15.50;;
21095;SDS011;10706;49.036;12.112;2022-12-18T10:51:00;43.90;;;15.13;;
21095;SDS011;10706;49.036;12.112;2022-12-18T10:53:28;49.73;;;14.43;;
21095;SDS011;10706;49.036;12.112;2022-12-18T10:55:57;39.40;;;14.60;;
21095;SDS011;10706;49.036;12.112;2022-12-18T10:58:26;49.10;;;15.27;;
21095;SDS011;10706;49.036;12.112;2022-12-18T11:03:58;34.47;;;13.37;;
21095;SDS011;10706;49.036;12.112;2022-12-18T11:06:28;52.63;;;19.17;;
21095;SDS011;10706;49.036;12.112;2022-12-18T11:09:02;51.50;;;18.30;;
21095;SDS011;10706;49.036;12.112;2022-12-18T11:11:48;48.73;;;16.00;;
21095;SDS011;10706;49.036;12.112;2022-12-18T11:14:20;56.37;;;17.77;;
21095;SDS011;10706;49.036;12.112;2022-12-18T11:16:50;44.20;;;15.63;;
21095;SDS011;10706;49.036;12.112;2022-12-18T11:22:01;34.77;;;13.40;;
21095;SDS011;10706;49.036;12.112;2022-12-18T11:24:58;45.80;;;15.43;;
21095;SDS011;10706;49.036;12.112;2022-12-18T11:27:31;43.07;;;15.73;;
21095;SDS011;10706;49.036;12.112;2022-12-18T11:30:08;46.50;;;15.37;;
21095;SDS011;10706;49.036;12.112;2022-12-18T11:32:49;32.83;;;10.90;;
21095;SDS011;10706;49.036;12.112;2022-12-18T11:35:30;38.47;;;13.53;;
21095;SDS011;10706;49.036;12.112;2022-12-18T11:38:14;32.37;;;13.27;;
21095;SDS011;10706;49.036;12.112;2022-12-18T11:46:24;35.63;;;12.67;;
21095;SDS011;10706;49.036;12.112;2022-12-18T11:49:11;35.67;;;14.27;;
21095;SDS011;10706;49.036;12.112;2022-12-18T11:51:59;36.83;;;13.17;;
21095;SDS011;10706;49.036;12.112;2022-12-18T11:55:04;23.57;;;9.97;;
21095;SDS011;10706;49.036;12.112;2022-12-18T11:57:41;35.20;;;13.83;;
21095;SDS011;10706;49.036;12.112;2022-12-18T12:00:41;42.23;;;14.97;;
21095;SDS011;10706;49.036;12.112;2022-12-18T12:07:09;34.63;;;13.27;;
21095;SDS011;10706;49.036;12.112;2022-12-18T12:21:39;42.77;;;16.10;;
21095;SDS011;10706;49.036;12.112;2022-12-18T12:33:53;34.77;;;12.63;;
21095;SDS011;10706;49.036;12.112;2022-12-18T12:36:34;35.77;;;12.70;;
21095;SDS011;10706;49.036;12.112;2022-12-18T12:39:18;37.00;;;13.63;;
21095;SDS011;10706;49.036;12.112;2022-12-18T12:41:51;44.33;;;14.13;;
21095;SDS011;10706;49.036;12.112;2022-12-18T12:44:39;43.10;;;14.03;;
21095;SDS011;10706;49.036;12.112;2022-12-18T12:47:14;36.10;;;13.00;;
21095;SDS011;10706;49.036;12.112;2022-12-18T12:49:47;36.10;;;12.00;;
21095;SDS011;10706;49.036;12.112;2022-12-18T12:52:15;32.50;;;10.23;;
21095;SDS011;10706;49.036;12.112;2022-12-18T12:54:58;33.23;;;12.57;;
21095;SDS011;10706;49.036;12.112;2022-12-18T12:57:33;35.53;;;12.10;;
21095;SDS011;10706;49.036;12.112;2022-12-18T13:00:11;38.47;;;13.03;;
21095;SDS011;10706;49.036;12.112;2022-12-18T13:02:51;35.33;;;13.47;;
21095;SDS011;10706;49.036;12.112;2022-12-18T13:10:57;32.73;;;12.70;;
21095;SDS011;10706;49.036;12.112;2022-12-18T13:16:20;42.07;;;14.80;;
21095;SDS011;10706;49.036;12.112;2022-12-18T13:18:49;37.60;;;14.43;;
21095;SDS011;10706;49.036;12.112;2022-12-18T13:21:38;36.67;;;13.23;;
21095;SDS011;10706;49.036;12.112;2022-12-18T13:26:47;38.03;;;14.73;;
21095;SDS011;10706;49.036;12.112;2022-12-18T13:29:14;32.70;;;13.53;;
21095;SDS011;10706;49.036;12.112;2022-12-18T13:32:21;41.83;;;13.37;;
21095;SDS011;10706;49.036;12.112;2022-12-18T13:37:52;33.70;;;12.97;;
21095;SDS011;10706;49.036;12.112;2022-12-18T13:43:15;60.97;;;19.17;;
21095;SDS011;10706;49.036;12.112;2022-12-18T13:45:44;46.30;;;15.07;;
21095;SDS011;10706;49.036;12.112;2022-12-18T13:48:30;74.83;;;21.00;;
21095;SDS011;10706;49.036;12.112;2022-12-18T13:51:02;60.33;;;23.70;;
21095;SDS011;10706;49.036;12.112;2022-12-18T13:53:35;39.67;;;13.00;;
21095;SDS011;10706;49.036;12.112;2022-12-18T13:56:14;37.20;;;12.80;;
21095;SDS011;10706;49.036;12.112;2022-12-18T14:01:56;34.97;;;12.93;;
21095;SDS011;10706;49.036;12.112;2022-12-18T14:04:28;34.00;;;13.13;;
21095;SDS011;10706;49.036;12.112;2022-12-18T14:06:58;32.20;;;12.77;;
21095;SDS011;10706;49.036;12.112;2022-12-18T14:09:55;38.53;;;13.07;;
21095;SDS011;10706;49.036;12.112;2022-12-18T14:12:25;33.93;;;13.23;;
21095;SDS011;10706;49.036;12.112;2022-12-18T14:18:09;40.80;;;13.03;;
21095;SDS011;10706;49.036;12.112;2022-12-18T14:20:50;38.07;;;14.67;;
21095;SDS011;10706;49.036;12.112;2022-12-18T14:28:48;38.67;;;12.57;;
21095;SDS011;10706;49.036;12.112;2022-12-18T14:31:27;29.80;;;13.13;;
21095;SDS011;10706;49.036;12.112;2022-12-18T14:33:55;37.13;;;14.80;;
21095;SDS011;10706;49.036;12.112;2022-12-18T14:36:22;32.53;;;12.53;;
21095;SDS011;10706;49.036;12.112;2022-12-18T14:38:52;31.80;;;13.00;;
21095;SDS011;10706;49.036;12.112;2022-12-18T14:41:20;33.30;;;13.53;;
21095;SDS011;10706;49.036;12.112;2022-12-18T14:43:48;34.20;;;12.77;;
21095;SDS011;10706;49.036;12.112;2022-12-18T14:48:58;30.40;;;11.43;;
21095;SDS011;10706;49.036;12.112;2022-12-18T14:51:27;38.33;;;13.30;;
21095;SDS011;10706;49.036;12.112;2022-12-18T14:53:57;32.80;;;12.77;;
21095;SDS011;10706;49.036;12.112;2022-12-18T14:56:32;35.83;;;13.13;;
21095;SDS011;10706;49.036;12.112;2022-12-18T14:59:02;29.53;;;12.77;;
21095;SDS011;10706;49.036;12.112;2022-12-18T15:01:37;30.43;;;12.70;;
21095;SDS011;10706;49.036;12.112;2022-12-18T15:09:41;38.13;;;13.17;;
21095;SDS011;10706;49.036;12.112;2022-12-18T15:12:35;39.37;;;13.97;;
21095;SDS011;10706;49.036;12.112;2022-12-18T15:20:38;44.03;;;13.93;;
21095;SDS011;10706;49.036;12.112;2022-12-18T15:23:05;35.30;;;13.13;;
21095;SDS011;10706;49.036;12.112;2022-12-18T15:26:02;36.53;;;12.13;;
21095;SDS011;10706;49.036;12.112;2022-12-18T15:29:16;31.53;;;12.47;;
21095;SDS011;10706;49.036;12.112;2022-12-18T15:31:31;33.57;;;13.17;;
21095;SDS011;10706;49.036;12.112;2022-12-18T15:34:13;39.53;;;12.57;;
21095;SDS011;10706;49.036;12.112;2022-12-18T15:36:46;36.77;;;11.73;;
21095;SDS011;10706;49.036;12.112;2022-12-18T15:39:12;28.00;;;11.00;;
21095;SDS011;10706;49.036;12.112;2022-12-18T15:41:38;28.50;;;12.30;;
21095;SDS011;10706;49.036;12.112;2022-12-18T15:44:20;32.90;;;12.93;;
21095;SDS011;10706;49.036;12.112;2022-12-18T15:46:49;37.20;;;13.53;;
21095;SDS011;10706;49.036;12.112;2022-12-18T15:49:15;34.27;;;13.63;;
21095;SDS011;10706;49.036;12.112;2022-12-18T15:51:40;39.43;;;14.17;;
21095;SDS011;10706;49.036;12.112;2022-12-18T15:54:09;37.70;;;13.63;;
21095;SDS011;10706;49.036;12.112;2022-12-18T15:56:40;38.10;;;14.60;;
21095;SDS011;10706;49.036;12.112;2022-12-18T15:59:25;34.80;;;13.17;;
21095;SDS011;10706;49.036;12.112;2022-12-18T16:01:51;38.63;;;14.43;;
21095;SDS011;10706;49.036;12.112;2022-12-18T16:04:18;34.60;;;13.10;;
21095;SDS011;10706;49.036;12.112;2022-12-18T16:06:46;39.53;;;15.30;;
21095;SDS011;10706;49.036;12.112;2022-12-18T16:09:13;38.03;;;15.27;;
21095;SDS011;10706;49.036;12.112;2022-12-18T16:11:39;31.07;;;14.97;;
21095;SDS011;10706;49.036;12.112;2022-12-18T16:14:21;39.63;;;14.03;;
21095;SDS011;10706;49.036;12.112;2022-12-18T16:16:53;32.70;;;12.37;;
21095;SDS011;10706;49.036;12.112;2022-12-18T16:19:25;31.30;;;11.23;;
21095;SDS011;10706;49.036;12.112;2022-12-18T16:21:53;34.67;;;13.03;;
21095;SDS011;10706;49.036;12.112;2022-12-18T16:24:22;36.47;;;14.00;;
21095;SDS011;10706;49.036;12.112;2022-12-18T16:26:53;36.80;;;11.60;;
21095;SDS011;10706;49.036;12.112;2022-12-18T16:29:24;39.27;;;14.07;;
21095;SDS011;10706;49.036;12.112;2022-12-18T16:31:58;39.37;;;13.50;;
21095;SDS011;10706;49.036;12.112;2022-12-18T16:34:29;32.27;;;12.83;;
21095;SDS011;10706;49.036;12.112;2022-12-18T16:37:01;29.67;;;13.13;;
21095;SDS011;10706;49.036;12.112;2022-12-18T16:39:31;36.70;;;16.67;;
21095;SDS011;10706;49.036;12.112;2022-12-18T16:42:05;38.97;;;14.67;;
21095;SDS011;10706;49.036;12.112;2022-12-18T16:44:39;42.83;;;15.80;;